Saint Joseph, MI (49085)

1:20 PM EST on November 27, 2014 (GMT -0500)
South of the High School | Change Station
CLOSE
Current Station
Personal Weather Station
Location: Saint Joseph, MI
Elevation: 666 ft
Nearby Weather Stations
Active Advisory: Lake Effect Snow Advisory

Elev 666 ft 42.09 °N, 86.49 °W | Updated 0 second ago

Overcast
Overcast
30.6 °F
Feels Like 31 °F
N
2.1
Wind Variable Wind from North
Gusts 4.5 mph

Today
High -- | Low -- °F
--% Chance of Precip.
Yesterday
High -- | Low -- °F
Precip. -- in
7:50 AM 5:16 PM
Waxing Crescent, 31% visible
Pressure 30.26 in
Visibility 1.8 miles
Clouds Scattered Clouds 1800 ft
Mostly Cloudy 2600 ft
Overcast 3800 ft
Windchill 31 °F
Dew Point 24 °F
Humidity 77%
Rainfall 0.00 in
Snow Depth Not available.
UV 1 out of 12
Pollen .10 out of 12
Air Quality Not available.
Flu Activity Not available.
SPECI KBEH 271814Z AUTO 31011G19KT 290V350 1 3/4SM -SN SCT018 BKN026 OVC038 M01/M04 A3026 RMK AO2 SNB06 P0001 T10111044

More Conditions Fewer Conditions

Pressure 30.26 in
Visibility 1.8 miles
Clouds Scattered Clouds 1800 ft
Mostly Cloudy 2600 ft
Overcast 3800 ft
Windchill 31 °F
Dew Point 24 °F
Humidity 77%
Rainfall 0.00 in
Snow Depth Not available.
UV 1 out of 12
Pollen .10 out of 12
Air Quality Not available.
Flu Activity Not available.
SPECI KBEH 271814Z AUTO 31011G19KT 290V350 1 3/4SM -SN SCT018 BKN026 OVC038 M01/M04 A3026 RMK AO2 SNB06 P0001 T10111044

More Conditions Fewer Conditions

10-Day Weather Forecast

Almanac

Astronomy

Nov. 27, 2014 Rise Set
Actual Time
Civil Twilight
Nautical Twilight
Astronomical Twilight
Moon
Length of Visible Light
Length of Day
Tomorrow will be .
, % of the Moon is Illuminated

Today's Extremes

State Highs State Lows

Community

WunderPhotos

Upload Photos

1,774,079 photos uploaded!

WunderBlogs® & News

Nearby

Air Quality

  Air Quality AQ Index Pollutant
Not available.

Snow Depth

Station Depth Elevation

Earthquake Activity

City Distance Mag. Time & Date
Minimum magnitude displayed is 2.5.

Coastal Water Temperatures

Place Temperature

Nearby Weather Stations